Time;durP1;ratioP1;P1;durP2;ratioP2;P2;SDS_P1;SDS_P2;PMS_P1;PMS_P2;Temp;Humidity;BMP_temperature;BMP_pressure;BME280_temperature;BME280_humidity;BME280_pressure;Samples;Min_cycle;Max_cycle;Signal;HPM_P1;HPM_P2
2022/06/13 00:00:51;;;;;;;4.97;4.78;;;;;;;13.47;79.56;101558.25;6005619;23;20019;-73
2022/06/13 00:03:17;;;;;;;4.70;4.50;;;;;;;12.81;79.75;101447.31;5996865;23;20019;-72
2022/06/13 00:05:44;;;;;;;4.80;4.60;;;;;;;13.52;79.56;101572.03;6032471;23;20085;-67
2022/06/13 00:08:10;;;;;;;6.35;6.05;;;;;;;13.24;80.54;101545.31;5997996;23;20022;-67
2022/06/13 00:10:37;;;;;;;4.60;4.40;;;;;;;13.40;80.66;101566.53;6030204;23;20040;-67
2022/06/13 00:13:04;;;;;;;5.80;5.53;;;;;;;12.20;80.47;101367.78;5967034;23;20495;-68
2022/06/13 00:15:30;;;;;;;4.70;4.50;;;;;;;13.34;80.70;101565.06;6030136;23;20325;-67
2022/06/13 00:17:57;;;;;;;5.30;5.05;;;;;;;13.24;81.38;101554.09;5991116;23;20478;-73
2022/06/13 00:20:23;;;;;;;4.80;4.60;;;;;;;13.27;81.23;101556.59;6023041;23;20031;-67
2022/06/13 00:22:50;;;;;;;4.80;4.60;;;;;;;13.21;82.38;101556.88;6000211;23;20233;-67
2022/06/13 00:25:16;;;;;;;4.57;4.38;;;;;;;13.12;82.35;101552.91;6021697;23;20397;-68
2022/06/13 00:27:43;;;;;;;4.80;4.60;;;;;;;12.88;83.13;101520.69;5997810;23;20339;-68
2022/06/13 00:30:10;;;;;;;6.07;5.78;;;;;;;12.83;83.70;101530.63;6021913;23;20030;-67
2022/06/13 00:32:37;;;;;;;4.68;4.47;;;;;;;12.80;84.43;101541.28;6005785;23;20191;-67
2022/06/13 00:35:04;;;;;;;6.05;5.75;;;;;;;12.73;84.47;101535.47;6033422;23;20034;-67
2022/06/13 00:37:30;;;;;;;4.60;4.40;;;;;;;12.61;85.51;101529.91;6003272;23;20580;-68
2022/06/13 00:39:57;;;;;;;5.03;4.82;;;;;;;12.41;86.63;101497.50;5989877;23;20091;-66
2022/06/13 00:42:25;;;;;;;4.40;4.20;;;;;;;12.67;87.37;101554.22;6001558;23;20710;-68
2022/06/13 00:45:21;;;;;;;4.50;4.30;;;;;;;12.34;88.25;101517.97;5996763;23;20157;-66
2022/06/13 00:47:54;;;;;;;4.70;4.50;;;;;;;11.44;89.04;101399.28;6020300;23;20026;-68
2022/06/13 00:50:23;;;;;;;;;;;;;;;11.48;88.89;101381.63;5994273;23;20012;-67
2022/06/13 00:52:58;;;;;;;4.53;4.32;;;;;;;12.44;89.66;101542.09;6029540;23;19914;-67
2022/06/13 00:55:32;;;;;;;4.65;4.45;;;;;;;12.44;89.26;101533.34;5995828;23;20108;-67
2022/06/13 00:58:01;;;;;;;5.70;5.50;;;;;;;12.37;89.38;101551.22;6025383;23;20032;-73
2022/06/13 01:00:29;;;;;;;4.75;4.55;;;;;;;12.18;90.71;101517.00;5974531;23;20015;-73
2022/06/13 01:02:56;;;;;;;4.70;4.50;;;;;;;12.17;90.89;101525.81;6021942;23;20155;-71
2022/06/13 01:05:27;;;;;;;4.70;4.50;;;;;;;12.25;91.73;101544.75;6017325;23;20029;-73
2022/06/13 01:07:55;;;;;;;4.70;4.50;;;;;;;12.05;91.90;101516.69;5997269;23;20023;-73
2022/06/13 01:13:09;;;;;;;6.10;5.80;;;;;;;11.91;92.38;101509.44;5990439;23;20258;-67
2022/06/13 01:16:05;;;;;;;4.40;4.20;;;;;;;12.12;92.98;101539.16;6024087;23;20078;-67
2022/06/13 01:18:54;;;;;;;4.75;4.55;;;;;;;12.11;92.49;101547.16;5997596;23;20034;-70
2022/06/13 01:21:58;;;;;;;4.43;4.22;;;;;;;12.07;93.00;101540.31;6007105;23;20358;-73
2022/06/13 01:24:43;;;;;;;4.60;4.40;;;;;;;12.02;92.45;101535.25;5991767;23;20136;-73
2022/06/13 01:27:31;;;;;;;6.15;5.85;;;;;;;11.99;92.95;101545.91;5994288;23;20021;-72
2022/06/13 01:30:01;;;;;;;5.95;5.65;;;;;;;11.94;93.74;101550.50;6000597;23;20030;-70
2022/06/13 01:32:33;;;;;;;4.70;4.50;;;;;;;11.92;93.59;101547.94;6023721;23;20023;-73
2022/06/13 01:35:12;;;;;;;6.25;5.95;;;;;;;11.89;93.18;101553.34;6021338;23;20027;-68
2022/06/13 01:38:02;;;;;;;4.55;4.35;;;;;;;11.89;94.45;101553.34;5994049;23;20055;-70
2022/06/13 01:40:56;;;;;;;4.50;4.30;;;;;;;11.89;93.43;101561.25;6017285;23;20349;-70
2022/06/13 01:43:22;;;;;;;4.45;4.25;;;;;;;11.87;94.67;101549.91;5989114;23;20020;-73
2022/06/13 01:46:08;;;;;;;4.32;4.13;;;;;;;10.85;93.18;101379.13;6002365;23;20567;-70
2022/06/13 01:48:51;;;;;;;4.50;4.30;;;;;;;11.86;93.94;101558.72;6016958;23;20070;-72
2022/06/13 01:51:44;;;;;;;4.30;4.10;;;;;;;11.84;95.06;101571.06;6000974;23;20089;-73
2022/06/13 01:54:25;;;;;;;5.40;5.20;;;;;;;11.93;94.25;101561.97;5990757;23;20019;-72
2022/06/13 01:57:17;;;;;;;4.40;4.20;;;;;;;11.94;93.97;101571.56;5997754;23;20034;-73
2022/06/13 01:59:59;;;;;;;4.55;4.35;;;;;;;12.04;93.11;101569.38;5986559;23;20044;-73
2022/06/13 02:02:51;;;;;;;4.40;4.20;;;;;;;12.13;92.72;101561.09;6026620;23;20011;-73
2022/06/13 02:05:25;;;;;;;4.40;4.20;;;;;;;12.10;92.05;101546.28;5975917;23;20331;-67
2022/06/13 02:07:58;;;;;;;5.13;4.72;;;;;;;12.28;92.03;101565.63;6022964;23;20027;-67
2022/06/13 02:11:10;;;;;;;4.50;4.30;;;;;;;12.35;91.89;101555.72;5996507;23;20094;-68
2022/06/13 02:13:38;;;;;;;4.65;4.45;;;;;;;12.38;91.33;101561.66;5984023;23;20109;-68
2022/06/13 02:16:11;;;;;;;5.72;5.50;;;;;;;12.41;92.09;101565.94;5995778;23;20019;-66
2022/06/13 02:18:50;;;;;;;4.40;4.20;;;;;;;12.48;90.99;101562.09;6001628;23;20143;-68
2022/06/13 02:21:20;;;;;;;4.70;4.50;;;;;;;12.48;91.16;101561.25;6019386;23;20026;-68
2022/06/13 02:23:50;;;;;;;4.50;4.30;;;;;;;12.57;90.40;101555.56;6028036;23;20023;-69
2022/06/13 02:26:31;;;;;;;4.40;4.20;;;;;;;12.48;91.18;101550.72;5994260;23;20028;-74
2022/06/13 02:29:06;;;;;;;5.43;5.20;;;;;;;12.55;91.05;101542.47;6017826;23;20133;-74
2022/06/13 02:31:54;;;;;;;5.07;4.75;;;;;;;11.70;90.91;101436.72;5994255;23;20027;-75
2022/06/13 02:34:34;;;;;;;4.47;4.28;;;;;;;12.35;90.70;101532.88;6021548;23;20081;-68
2022/06/13 02:37:09;;;;;;;6.03;5.72;;;;;;;12.53;90.92;101554.00;6019264;23;20316;-66
2022/06/13 02:39:42;;;;;;;4.50;4.30;;;;;;;12.46;91.24;101548.16;6047860;23;20043;-66
2022/06/13 02:42:26;;;;;;;4.53;4.32;;;;;;;12.40;91.14;101540.53;6025107;23;20018;-69
2022/06/13 02:45:04;;;;;;;4.40;4.20;;;;;;;12.29;92.04;101534.94;6032633;23;20030;-68
2022/06/13 02:47:38;;;;;;;4.50;4.30;;;;;;;12.15;92.77;101514.50;6058015;23;20077;-69
2022/06/13 02:50:29;;;;;;;4.47;4.28;;;;;;;12.12;93.77;101531.28;6030389;23;20015;-69
2022/06/13 02:52:55;;;;;;;4.50;4.30;;;;;;;12.12;94.64;101544.44;6055210;23;20050;-68
2022/06/13 02:55:22;;;;;;;5.30;4.90;;;;;;;12.14;94.40;101541.72;6028669;23;20054;-68
2022/06/13 02:57:52;;;;;;;4.90;4.68;;;;;;;12.15;94.03;101548.72;6054737;23;20450;-68
2022/06/13 03:00:30;;;;;;;4.60;4.40;;;;;;;12.11;94.21;101537.47;6032975;23;20131;-68
2022/06/13 03:03:19;;;;;;;4.47;4.28;;;;;;;12.08;94.64;101539.38;6048428;23;20081;-65
2022/06/13 03:05:57;;;;;;;4.30;4.10;;;;;;;12.02;96.27;101547.56;6015142;23;20370;-68
2022/06/13 03:08:58;;;;;;;4.25;4.05;;;;;;;12.00;96.63;101554.66;6054881;23;20396;-69
2022/06/13 03:11:31;;;;;;;4.43;4.22;;;;;;;11.42;96.96;101466.84;6003951;23;20098;-68
2022/06/13 03:14:24;;;;;;;5.15;4.95;;;;;;;12.00;96.70;101554.66;6049718;23;20107;-69
2022/06/13 03:17:00;;;;;;;5.20;4.93;;;;;;;12.00;96.14;101544.13;6025493;23;20590;-74
2022/06/13 03:19:36;;;;;;;4.50;4.30;;;;;;;12.00;96.46;101550.25;6055389;23;20018;-71
2022/06/13 03:22:09;;;;;;;7.20;5.97;;;;;;;11.87;96.11;101528.88;6021481;23;20433;-68
2022/06/13 03:24:56;;;;;;;5.20;4.90;;;;;;;12.10;95.93;101558.59;6054529;23;20468;-69
2022/06/13 03:27:31;;;;;;;4.32;4.13;;;;;;;12.17;96.78;101558.25;6023465;23;20022;-67
2022/06/13 03:30:12;;;;;;;5.50;5.30;;;;;;;12.24;96.62;101563.22;6027678;23;20466;-70
2022/06/13 03:32:43;;;;;;;4.78;4.57;;;;;;;12.29;96.80;101558.63;6038374;23;20363;-66
2022/06/13 03:35:17;;;;;;;5.88;5.57;;;;;;;12.34;96.21;101567.16;6041721;23;20019;-69
2022/06/13 03:37:50;;;;;;;4.38;4.18;;;;;;;12.13;95.93;101514.56;6027639;23;20044;-67
2022/06/13 03:40:27;;;;;;;4.78;4.57;;;;;;;12.38;95.54;101559.03;5998147;23;20011;-66
2022/06/13 03:43:05;;;;;;;4.70;4.40;;;;;;;12.40;95.45;101564.22;6029250;23;20199;-68
2022/06/13 03:45:38;;;;;;;4.55;4.35;;;;;;;12.02;94.99;101484.41;5997590;23;20030;-66
2022/06/13 03:48:14;;;;;;;5.80;5.55;;;;;;;12.35;95.25;101538.13;6026169;23;20019;-67
2022/06/13 03:50:55;;;;;;;4.68;4.47;;;;;;;12.56;94.31;101551.22;5993630;23;20449;-67
2022/06/13 03:53:39;;;;;;;4.50;4.30;;;;;;;12.60;94.27;101559.81;6013276;23;20015;-66
2022/06/13 03:56:17;;;;;;;6.18;5.88;;;;;;;12.57;93.97;101534.50;5973524;23;20015;-68
2022/06/13 03:58:55;;;;;;;4.40;4.20;;;;;;;12.73;93.57;101543.38;6027341;23;20093;-70
2022/06/13 04:01:27;;;;;;;4.60;4.40;;;;;;;12.76;93.56;101545.84;5998960;23;20215;-71
2022/06/13 04:03:56;;;;;;;4.78;4.57;;;;;;;12.72;94.33;101539.03;6025763;23;20019;-74
2022/06/13 04:06:34;;;;;;;5.43;5.13;;;;;;;12.78;93.99;101544.00;5999880;23;20817;-70
2022/06/13 04:09:06;;;;;;;5.78;5.53;;;;;;;12.83;93.92;101542.91;6031309;23;21192;-66
2022/06/13 04:12:01;;;;;;;4.40;4.20;;;;;;;12.93;93.85;101549.47;5996920;23;20019;-66
2022/06/13 04:15:06;;;;;;;5.50;5.10;;;;;;;13.03;92.62;101548.09;6020308;23;20101;-67
2022/06/13 04:17:41;;;;;;;4.60;4.40;;;;;;;13.16;93.14;101543.91;5853720;24;20076;-68
2022/06/13 04:20:41;;;;;;;5.85;5.55;;;;;;;13.06;92.00;101518.09;5878266;24;20608;-72
2022/06/13 04:23:22;;;;;;;4.55;4.35;;;;;;;12.97;91.65;101519.41;5970126;23;20030;-72
2022/06/13 04:26:10;;;;;;;4.85;4.60;;;;;;;13.09;92.30;101541.66;6033456;23;20089;-68
2022/06/13 04:28:52;;;;;;;4.70;4.50;;;;;;;13.10;92.20;101557.41;6000611;23;20575;-73
2022/06/13 04:31:21;;;;;;;4.47;4.28;;;;;;;13.09;92.01;101562.72;6025235;23;20090;-72
2022/06/13 04:34:02;;;;;;;4.85;4.65;;;;;;;13.11;92.01;101560.88;5992118;23;20025;-74
2022/06/13 04:36:31;;;;;;;4.40;4.20;;;;;;;13.03;92.05;101531.41;6025299;23;20240;-71
2022/06/13 04:39:01;;;;;;;4.95;4.75;;;;;;;13.01;91.76;101522.72;5989810;23;20034;-74
2022/06/13 04:41:31;;;;;;;4.65;4.40;;;;;;;13.06;90.95;101524.22;5989806;23;20194;-72
2022/06/13 04:44:02;;;;;;;4.85;4.65;;;;;;;13.24;89.29;101555.88;6022429;23;20144;-67
2022/06/13 04:46:30;;;;;;;4.55;4.35;;;;;;;13.11;89.69;101555.59;6018291;23;20094;-71
2022/06/13 04:49:01;;;;;;;4.82;4.63;;;;;;;13.13;90.50;101565.16;5994783;23;20030;-71
2022/06/13 04:51:36;;;;;;;4.95;4.70;;;;;;;12.80;89.68;101541.28;6018805;23;20015;-73
2022/06/13 04:54:09;;;;;;;6.22;5.93;;;;;;;13.03;90.12;101571.81;5982523;23;20373;-73
2022/06/13 04:56:35;;;;;;;4.50;4.30;;;;;;;12.97;89.88;101569.47;6017295;23;20043;-68
2022/06/13 04:59:03;;;;;;;5.90;5.60;;;;;;;13.00;90.44;101582.50;5990471;23;20572;-68
2022/06/13 05:01:46;;;;;;;4.97;4.68;;;;;;;12.64;95.21;101612.28;6011840;23;20177;-67
2022/06/13 05:04:20;;;;;;;4.47;4.28;;;;;;;12.51;100.00;101609.34;5962508;23;20027;-72
2022/06/13 05:06:52;;;;;;;4.30;4.10;;;;;;;11.74;100.00;101447.00;6021830;23;20456;-71
2022/06/13 05:09:26;;;;;;;5.18;4.78;;;;;;;12.82;100.00;101605.28;5996276;23;20094;-67
2022/06/13 05:12:07;;;;;;;4.43;4.22;;;;;;;13.00;99.55;101605.34;5988723;23;20022;-67
2022/06/13 05:14:48;;;;;;;4.90;4.70;;;;;;;12.92;99.65;101577.59;6023566;23;20047;-68
2022/06/13 05:17:52;;;;;;;5.05;4.85;;;;;;;12.20;98.80;101412.50;5982297;23;20109;-68
2022/06/13 05:20:27;;;;;;;4.53;4.32;;;;;;;13.35;95.52;101601.91;6020392;23;20119;-68
2022/06/13 05:22:56;;;;;;;4.50;4.30;;;;;;;13.68;97.06;101616.97;6001196;23;20027;-68
2022/06/13 05:25:30;;;;;;;4.63;4.43;;;;;;;14.04;95.57;101610.72;5993140;23;20369;-68
2022/06/13 05:27:56;;;;;;;5.32;5.07;;;;;;;14.14;94.73;101601.38;6017760;23;20074;-68
2022/06/13 05:30:24;;;;;;;4.32;4.13;;;;;;;14.27;95.58;101606.88;5994825;23;20030;-68
2022/06/13 05:32:50;;;;;;;5.55;5.25;;;;;;;14.13;93.34;101569.78;6022215;23;20493;-67
2022/06/13 05:35:24;;;;;;;5.00;4.80;;;;;;;14.33;92.24;101611.84;5999301;23;20086;-68
2022/06/13 05:37:52;;;;;;;4.70;4.50;;;;;;;14.32;92.06;101625.13;6061281;23;20094;-73
2022/06/13 05:40:21;;;;;;;4.70;4.50;;;;;;;14.42;90.71;101612.28;6022352;23;20185;-72
2022/06/13 05:42:48;;;;;;;4.65;4.45;;;;;;;14.51;93.14;101611.75;6048303;23;20101;-76
2022/06/13 05:45:18;;;;;;;6.15;5.75;;;;;;;14.50;91.83;101599.50;6020919;23;20075;-68
2022/06/13 05:47:46;;;;;;;4.43;4.22;;;;;;;14.64;90.21;101626.06;6029428;23;20133;-68
2022/06/13 05:50:22;;;;;;;6.05;5.75;;;;;;;14.84;91.04;101629.41;6026755;23;20097;-69
2022/06/13 05:52:49;;;;;;;4.90;4.70;;;;;;;15.30;89.37;101603.03;6002851;23;20097;-68
2022/06/13 05:55:15;;;;;;;5.45;5.15;;;;;;;15.78;86.00;101622.28;6024280;23;20143;-71
2022/06/13 05:57:58;;;;;;;6.22;5.82;;;;;;;16.29;84.05;101629.81;6028809;23;20030;-71
2022/06/13 06:00:30;;;;;;;4.95;4.75;;;;;;;16.04;79.79;101596.06;6040731;23;20012;-72
2022/06/13 06:02:56;;;;;;;5.68;5.43;;;;;;;16.19;79.88;101632.16;6022469;23;20093;-73
2022/06/13 06:05:23;;;;;;;4.90;4.70;;;;;;;15.23;79.23;101554.91;6015482;23;20464;-75
2022/06/13 06:07:50;;;;;;;5.07;4.88;;;;;;;15.54;80.68;101643.91;6037607;23;20038;-71
2022/06/13 06:10:20;;;;;;;5.20;5.00;;;;;;;15.41;82.71;101639.41;6025331;23;20078;-70
2022/06/13 06:12:47;;;;;;;4.70;4.50;;;;;;;15.20;84.34;101623.84;6052404;23;20018;-72
2022/06/13 06:15:13;;;;;;;5.15;4.95;;;;;;;15.20;85.12;101642.34;6045763;23;20022;-71
2022/06/13 06:17:40;;;;;;;4.93;4.72;;;;;;;15.03;85.30;101640.63;6027593;23;20015;-67
2022/06/13 06:20:07;;;;;;;6.13;5.82;;;;;;;15.23;87.11;101633.38;6020171;23;20019;-67
2022/06/13 06:22:33;;;;;;;4.90;4.70;;;;;;;15.53;86.79;101636.91;6047536;23;20034;-68
2022/06/13 06:25:00;;;;;;;6.30;6.00;;;;;;;16.02;85.74;101609.38;6024272;23;20601;-67
2022/06/13 06:27:26;;;;;;;4.90;4.68;;;;;;;16.85;82.52;101627.25;6055763;23;20280;-68
2022/06/13 06:29:53;;;;;;;4.68;4.47;;;;;;;17.26;77.92;101632.53;6036461;23;20125;-74
2022/06/13 06:32:19;;;;;;;6.05;5.63;;;;;;;17.18;75.98;101610.97;6045161;23;20912;-72
2022/06/13 06:34:46;;;;;;;4.72;4.53;;;;;;;17.49;76.24;101638.97;6029962;23;20046;-69
2022/06/13 06:37:13;;;;;;;6.82;6.28;;;;;;;17.07;71.92;101638.16;6051685;23;20103;-66
2022/06/13 06:39:39;;;;;;;5.70;5.28;;;;;;;17.23;72.20;101645.13;6027427;23;20018;-67
2022/06/13 06:42:06;;;;;;;5.90;5.60;;;;;;;17.80;71.73;101641.38;6042722;23;20105;-66
2022/06/13 06:44:32;;;;;;;5.15;4.95;;;;;;;18.13;69.50;101647.06;6018367;23;20214;-66
2022/06/13 06:46:59;;;;;;;5.70;5.22;;;;;;;18.39;67.95;101635.59;6054446;23;20026;-68
2022/06/13 06:49:25;;;;;;;5.05;4.85;;;;;;;18.97;67.67;101643.91;6023854;23;20387;-67
2022/06/13 06:51:52;;;;;;;5.70;5.40;;;;;;;18.72;65.13;101659.78;6025435;23;20037;-74
2022/06/13 06:59:55;;;;;;;5.70;5.40;;;;;;;18.18;67.59;101644.09;6046951;23;20110;-67
2022/06/13 07:02:24;;;;;;;5.93;5.63;;;;;;;18.89;65.83;101641.78;6019658;23;20277;-75
2022/06/13 07:04:52;;;;;;;5.43;5.13;;;;;;;19.23;64.31;101615.38;6054156;23;20034;-73
2022/06/13 07:07:19;;;;;;;6.30;5.90;;;;;;;19.65;62.95;101640.59;6019708;23;20039;-71
2022/06/13 07:09:46;;;;;;;5.75;5.35;;;;;;;20.09;61.71;101628.38;6051876;23;20219;-68
2022/06/13 07:12:13;;;;;;;6.45;6.15;;;;;;;20.61;60.23;101649.28;6020514;23;20325;-67
2022/06/13 07:14:40;;;;;;;5.47;5.18;;;;;;;20.90;58.23;101646.94;6046860;23;20327;-68
2022/06/13 07:17:08;;;;;;;6.55;6.25;;;;;;;20.01;59.47;101637.94;6027096;23;20278;-72
2022/06/13 07:19:35;;;;;;;5.72;5.43;;;;;;;20.15;60.84;101643.03;6056006;23;20412;-67
2022/06/13 07:22:03;;;;;;;7.10;6.78;;;;;;;19.61;62.17;101656.94;6021486;23;20088;-74
2022/06/13 07:24:31;;;;;;;5.32;5.13;;;;;;;18.63;66.18;101612.56;6046742;23;20081;-68
2022/06/13 07:26:58;;;;;;;6.72;5.95;;;;;;;18.34;69.04;101673.09;6018038;23;20049;-71
2022/06/13 07:29:24;;;;;;;6.15;5.60;;;;;;;18.38;69.07;101666.63;6058907;23;20361;-72
2022/06/13 07:31:58;;;;;;;6.03;5.65;;;;;;;18.29;69.38;101667.25;6022388;23;20196;-72
2022/06/13 07:34:27;;;;;;;6.00;5.60;;;;;;;18.25;70.19;101629.41;6056701;23;20151;-67
2022/06/13 07:36:56;;;;;;;6.25;5.95;;;;;;;18.47;70.46;101668.63;6013479;23;20082;-75
2022/06/13 07:39:23;;;;;;;6.90;6.40;;;;;;;18.32;72.03;101627.19;6048004;23;20021;-72
2022/06/13 07:41:50;;;;;;;5.80;5.50;;;;;;;19.00;70.47;101662.28;5998921;23;20031;-66
2022/06/13 07:44:22;;;;;;;12.88;12.10;;;;;;;19.76;68.15;101669.09;5910764;23;20246;-68
2022/06/13 07:46:50;;;;;;;6.43;5.90;;;;;;;19.89;65.59;101642.41;6053757;23;20015;-67
2022/06/13 07:49:20;;;;;;;6.03;5.72;;;;;;;20.08;65.03;101671.97;6046647;23;20190;-70
2022/06/13 07:51:47;;;;;;;5.90;5.60;;;;;;;19.26;68.03;101681.69;6034782;23;20471;-67
2022/06/13 07:54:14;;;;;;;6.65;6.25;;;;;;;19.33;70.03;101678.44;6067101;23;20338;-67
2022/06/13 07:56:42;;;;;;;5.32;5.13;;;;;;;18.99;69.60;101685.38;6024248;23;20025;-67
2022/06/13 07:59:14;;;;;;;7.53;7.05;;;;;;;19.29;68.97;101682.31;6052119;23;20015;-68
2022/06/13 08:01:41;;;;;;;5.10;4.90;;;;;;;19.44;67.24;101658.19;6015307;23;20477;-67
2022/06/13 08:04:07;;;;;;;7.25;6.88;;;;;;;19.87;66.16;101687.78;6055046;23;20030;-68
2022/06/13 08:06:34;;;;;;;6.97;5.95;;;;;;;19.31;67.54;101655.59;6024765;23;20017;-67
2022/06/13 08:09:00;;;;;;;7.15;6.75;;;;;;;19.76;67.67;101689.56;6049017;23;20030;-74
2022/06/13 08:11:32;;;;;;;5.70;5.40;;;;;;;19.56;66.99;101678.56;6028617;23;20050;-67
2022/06/13 08:13:59;;;;;;;6.47;6.18;;;;;;;20.10;64.77;101698.50;6047819;23;20037;-74
2022/06/13 08:16:25;;;;;;;5.82;5.53;;;;;;;19.62;64.41;101675.44;6024882;23;20015;-72
2022/06/13 08:18:52;;;;;;;7.85;7.35;;;;;;;19.66;65.03;101710.69;6050379;23;20396;-72
2022/06/13 08:21:19;;;;;;;6.05;5.72;;;;;;;19.88;63.76;101710.78;6021151;23;20034;-67
2022/06/13 08:23:46;;;;;;;5.53;5.32;;;;;;;20.24;62.31;101705.44;6050970;23;20488;-67
2022/06/13 08:26:12;;;;;;;7.25;6.82;;;;;;;21.00;61.27;101698.56;6016669;23;20035;-67
2022/06/13 08:28:39;;;;;;;6.03;5.72;;;;;;;20.77;57.69;101697.78;6053380;23;20517;-71
2022/06/13 08:31:09;;;;;;;5.68;5.38;;;;;;;19.88;59.60;101701.97;6028864;23;20021;-72
2022/06/13 08:33:37;;;;;;;5.82;5.53;;;;;;;20.21;58.47;101703.03;6053339;23;20014;-74
2022/06/13 08:36:05;;;;;;;7.82;7.43;;;;;;;20.22;57.65;101662.91;6047291;23;20053;-74
2022/06/13 08:38:32;;;;;;;5.72;5.32;;;;;;;20.11;58.13;101708.22;6048633;23;20274;-74
2022/06/13 08:41:14;;;;;;;5.88;5.50;;;;;;;20.73;57.70;101704.31;6020784;23;20041;-69
2022/06/13 08:43:46;;;;;;;5.70;5.40;;;;;;;20.96;55.03;101702.47;6045425;23;20037;-72
2022/06/13 08:46:45;;;;;;;5.55;5.28;;;;;;;20.80;55.11;101713.50;6032597;23;20303;-68
2022/06/13 08:49:20;;;;;;;6.75;6.45;;;;;;;21.04;54.39;101708.03;5987452;23;20025;-68
2022/06/13 08:51:54;;;;;;;5.60;5.20;;;;;;;19.26;54.69;101512.22;6051904;23;20070;-68
2022/06/13 08:54:26;;;;;;;6.07;5.75;;;;;;;20.24;57.84;101718.78;6029506;23;20019;-68
2022/06/13 08:56:54;;;;;;;5.63;5.32;;;;;;;20.27;58.27;101714.06;6061177;23;20090;-68
2022/06/13 08:59:34;;;;;;;5.35;5.10;;;;;;;20.03;58.08;101723.94;6038880;23;20058;-67
2022/06/13 09:02:13;;;;;;;5.85;5.55;;;;;;;19.92;58.18;101693.63;6053061;23;20335;-73
2022/06/13 09:04:46;;;;;;;6.22;5.72;;;;;;;19.67;58.79;101693.75;6069256;23;20042;-73
2022/06/13 09:07:29;;;;;;;5.40;5.10;;;;;;;19.43;57.58;101694.59;6024631;23;20073;-68
2022/06/13 09:10:17;;;;;;;5.15;4.95;;;;;;;19.52;57.20;101725.88;6063544;23;20101;-74
2022/06/13 09:13:14;;;;;;;5.32;5.13;;;;;;;18.48;58.67;101590.59;6049021;23;20021;-71
2022/06/13 09:15:45;;;;;;;6.53;6.03;;;;;;;19.15;58.70;101697.59;6027243;23;20085;-73
2022/06/13 09:18:45;;;;;;;6.43;6.13;;;;;;;19.60;58.99;101735.09;6052983;23;20069;-74
2022/06/13 09:21:24;;;;;;;5.75;5.45;;;;;;;19.52;58.15;101709.91;6006246;23;20124;-72
2022/06/13 09:24:06;;;;;;;5.40;5.20;;;;;;;19.75;56.51;101734.00;6066137;23;20014;-72
2022/06/13 09:26:45;;;;;;;5.30;5.10;;;;;;;19.64;55.15;101677.97;6020915;23;20073;-67
2022/06/13 09:29:30;;;;;;;6.88;6.47;;;;;;;20.24;55.04;101729.44;6048950;23;20014;-74
2022/06/13 09:32:10;;;;;;;6.32;5.93;;;;;;;19.92;52.84;101722.94;6025684;23;20023;-66
2022/06/13 09:34:43;;;;;;;5.53;5.22;;;;;;;20.21;52.62;101735.84;6054664;23;20253;-68
2022/06/13 09:37:13;;;;;;;6.70;6.38;;;;;;;20.50;50.95;101730.09;6023210;23;20621;-68
2022/06/13 09:39:41;;;;;;;5.30;5.10;;;;;;;20.72;48.57;101738.13;6033736;23;20098;-68
2022/06/13 09:42:29;;;;;;;6.00;5.70;;;;;;;21.28;47.37;101749.75;6027387;23;20019;-73
2022/06/13 09:45:26;;;;;;;5.47;5.22;;;;;;;21.67;45.43;101734.16;6017265;23;20337;-73
2022/06/13 09:48:02;;;;;;;5.90;5.60;;;;;;;21.89;45.83;101746.56;6027969;23;20194;-76
2022/06/13 09:50:52;;;;;;;6.00;5.70;;;;;;;21.74;44.97;101740.66;6047244;23;20053;-72
2022/06/13 09:53:37;;;;;;;5.40;5.20;;;;;;;21.05;45.84;101744.44;6005079;23;20023;-74
2022/06/13 09:56:11;;;;;;;7.90;7.50;;;;;;;20.97;47.62;101746.00;6052360;23;20014;-74
2022/06/13 09:59:02;;;;;;;5.80;5.50;;;;;;;20.30;47.77;101756.47;6042373;23;20686;-74
2022/06/13 10:01:59;;;;;;;5.45;5.15;;;;;;;19.88;50.02;101753.41;6055187;23;20011;-72
2022/06/13 10:04:28;;;;;;;5.70;5.20;;;;;;;19.51;50.98;101760.59;5999018;23;20038;-74
2022/06/13 10:07:07;;;;;;;6.38;5.43;;;;;;;19.45;53.29;101755.72;6055305;23;20271;-75
2022/06/13 10:09:36;;;;;;;5.30;5.00;;;;;;;19.47;53.17;101754.66;6022237;23;20079;-73
2022/06/13 10:12:25;;;;;;;6.80;6.50;;;;;;;19.80;53.41;101757.63;6052083;23;21745;-75
2022/06/13 10:15:25;;;;;;;5.68;5.38;;;;;;;20.63;51.88;101757.53;6033509;23;20093;-69
2022/06/13 10:18:19;;;;;;;5.10;4.90;;;;;;;21.75;48.50;101758.41;6050384;23;20375;-71
2022/06/13 10:20:56;;;;;;;5.38;5.18;;;;;;;22.21;44.77;101733.16;6021672;23;20017;-73
2022/06/13 10:23:42;;;;;;;5.18;4.97;;;;;;;21.67;42.45;101748.34;6054280;23;20574;-71
2022/06/13 10:26:32;;;;;;;6.43;6.13;;;;;;;21.24;45.01;101761.66;6020591;23;20264;-72
2022/06/13 10:29:22;;;;;;;6.63;6.22;;;;;;;21.09;45.26;101737.88;6044158;23;21055;-72
2022/06/13 10:32:06;;;;;;;5.13;4.93;;;;;;;20.89;46.17;101762.66;6027771;23;20033;-72
2022/06/13 10:35:16;;;;;;;5.30;5.10;;;;;;;20.64;47.26;101735.22;6057609;23;20026;-73
2022/06/13 10:38:13;;;;;;;5.15;4.95;;;;;;;20.21;47.91;101757.19;5996178;23;20105;-75
2022/06/13 10:40:41;;;;;;;5.47;5.18;;;;;;;20.30;47.80;101763.63;6022919;23;20074;-73
2022/06/13 10:43:08;;;;;;;9.25;8.50;;;;;;;19.95;48.92;101692.53;5985276;23;20051;-72
2022/06/13 10:45:37;;;;;;;5.25;4.95;;;;;;;20.39;46.71;101740.75;6023933;23;20243;-68
2022/06/13 10:48:34;;;;;;;6.13;5.82;;;;;;;21.09;44.51;101761.91;6000409;23;20027;-69
2022/06/13 10:51:03;;;;;;;6.10;5.80;;;;;;;21.02;42.38;101739.34;6017919;23;20268;-72
2022/06/13 10:54:09;;;;;;;5.30;5.10;;;;;;;21.95;42.35;101750.53;6000234;23;20051;-74
2022/06/13 10:56:43;;;;;;;5.43;5.13;;;;;;;22.33;40.15;101696.53;5992436;23;20098;-69
2022/06/13 10:59:26;;;;;;;6.60;6.30;;;;;;;22.69;38.38;101748.66;5998203;23;20429;-70
2022/06/13 11:02:00;;;;;;;5.40;5.10;;;;;;;22.10;37.79;101767.97;6017377;23;20405;-69
2022/06/13 11:04:30;;;;;;;5.72;5.38;;;;;;;21.71;38.81;101752.47;6033078;23;20502;-69
2022/06/13 11:07:19;;;;;;;5.32;5.07;;;;;;;21.11;39.79;101677.22;5992811;23;20016;-73
2022/06/13 11:09:49;;;;;;;5.40;5.20;;;;;;;21.10;38.90;101718.22;6019715;23;20113;-68
2022/06/13 11:12:36;;;;;;;6.28;5.97;;;;;;;21.87;40.63;101770.75;5994482;23;20318;-70
2022/06/13 11:24:11;;;;;;;6.88;6.38;;;;;;;21.83;39.70;101745.25;5992106;23;20006;-71
2022/06/13 11:29:27;;;;;;;5.63;5.32;;;;;;;22.51;39.86;101744.88;5994454;23;20031;-73
2022/06/13 11:31:56;;;;;;;5.60;5.30;;;;;;;22.57;39.14;101763.09;6023565;23;20018;-69
2022/06/13 11:34:39;;;;;;;5.22;5.03;;;;;;;21.87;40.23;101721.75;6000485;23;21330;-67
2022/06/13 11:37:18;;;;;;;6.75;6.43;;;;;;;21.86;40.45;101758.34;6017630;23;20106;-67
2022/06/13 11:39:47;;;;;;;5.40;5.18;;;;;;;21.43;42.14;101753.88;5993638;23;20050;-67
2022/06/13 11:42:29;;;;;;;6.10;5.80;;;;;;;22.13;42.14;101758.81;6029347;23;20074;-71
2022/06/13 11:45:05;;;;;;;7.35;6.70;;;;;;;22.06;41.56;101718.41;5990703;23;20031;-73
2022/06/13 11:47:58;;;;;;;5.13;4.93;;;;;;;21.52;39.79;101757.59;6027292;23;20014;-69
2022/06/13 11:50:28;;;;;;;5.20;5.00;;;;;;;21.44;41.35;101755.56;5990403;23;20321;-67
2022/06/13 11:55:56;;;;;;;5.10;4.90;;;;;;;21.19;40.58;101748.69;5991315;23;20022;-68
2022/06/13 11:58:30;;;;;;;5.30;5.10;;;;;;;21.40;41.97;101778.13;6026113;23;20130;-68
2022/06/13 12:01:42;;;;;;;5.65;5.40;;;;;;;21.32;41.88;101765.38;5996713;23;20055;-67
2022/06/13 12:04:11;;;;;;;7.03;6.72;;;;;;;21.72;42.59;101763.97;5996834;23;20011;-68
2022/06/13 12:06:55;;;;;;;5.50;5.30;;;;;;;21.35;42.21;101764.31;6005447;23;20095;-68
2022/06/13 12:09:31;;;;;;;5.30;5.10;;;;;;;21.45;40.24;101775.97;6032999;23;20038;-72
2022/06/13 12:12:04;;;;;;;6.22;5.93;;;;;;;21.22;41.84;101761.75;6000793;23;20018;-67
2022/06/13 12:14:35;;;;;;;5.20;4.95;;;;;;;21.27;42.89;101770.25;6011155;23;20023;-68
2022/06/13 12:17:11;;;;;;;6.90;6.60;;;;;;;21.50;41.22;101764.91;5999911;23;20022;-67
2022/06/13 12:19:47;;;;;;;5.20;5.00;;;;;;;21.36;39.97;101778.50;6012733;23;20038;-67
2022/06/13 12:22:23;;;;;;;5.20;5.00;;;;;;;20.90;40.37;101767.84;6011643;23;20015;-67
2022/06/13 12:25:01;;;;;;;5.40;5.20;;;;;;;20.46;40.63;101750.78;5994433;23;20072;-71